createdAt,value
2019-05-19T00:00:06.610Z,55.40
2019-05-19T00:01:28.305Z,55.40
2019-05-19T00:02:50.541Z,55.40
2019-05-19T00:04:12.223Z,55.40
2019-05-19T00:05:33.881Z,55.30
2019-05-19T00:06:55.373Z,55.50
2019-05-19T00:08:16.985Z,55.50
2019-05-19T00:09:38.293Z,55.50
2019-05-19T00:10:59.776Z,55.40
2019-05-19T00:12:21.441Z,55.40
2019-05-19T00:13:42.928Z,55.40
2019-05-19T00:15:05.565Z,55.50
2019-05-19T00:16:27.076Z,55.40
2019-05-19T00:17:48.486Z,55.50
2019-05-19T00:19:10.306Z,55.40
2019-05-19T00:20:31.711Z,55.60
2019-05-19T00:21:54.188Z,55.50
2019-05-19T00:23:16.166Z,55.50
2019-05-19T00:24:37.755Z,55.50
2019-05-19T00:25:59.701Z,55.60
2019-05-19T00:27:22.338Z,55.50
2019-05-19T00:28:45.465Z,55.50
2019-05-19T00:30:07.100Z,55.50
2019-05-19T00:31:28.715Z,55.50
2019-05-19T00:32:49.893Z,55.50
2019-05-19T00:34:11.635Z,55.50
2019-05-19T00:35:34.885Z,55.50
2019-05-19T00:36:57.252Z,56.80
2019-05-19T00:38:18.776Z,55.60
2019-05-19T00:39:40.749Z,55.60
2019-05-19T00:41:03.136Z,55.50
2019-05-19T00:42:24.797Z,55.70
2019-05-19T00:43:46.204Z,56.70
2019-05-19T00:45:07.921Z,56.80
2019-05-19T00:46:29.738Z,55.50
2019-05-19T00:47:52.962Z,55.60
2019-05-19T00:49:14.501Z,56.80
2019-05-19T00:50:36.217Z,55.70
2019-05-19T00:51:57.627Z,55.50
2019-05-19T00:53:19.341Z,55.60
2019-05-19T00:54:41.735Z,55.60
2019-05-19T00:56:03.490Z,55.60
2019-05-19T00:57:25.318Z,55.60
2019-05-19T00:58:47.028Z,55.70
2019-05-19T01:00:08.571Z,55.70
2019-05-19T01:01:29.944Z,55.60
2019-05-19T01:02:53.380Z,55.60
2019-05-19T01:04:14.910Z,55.60
2019-05-19T01:05:36.421Z,54.90
2019-05-19T01:06:59.844Z,55.70
2019-05-19T01:08:20.877Z,55.50
2019-05-19T01:09:42.593Z,55.60
2019-05-19T01:11:04.103Z,55.50
2019-05-19T01:12:25.512Z,55.50
2019-05-19T01:13:47.229Z,55.50
2019-05-19T01:15:08.742Z,55.60
2019-05-19T01:16:30.045Z,55.60
2019-05-19T01:17:51.658Z,55.70
2019-05-19T01:19:13.477Z,55.70
2019-05-19T01:20:34.886Z,55.50
2019-05-19T01:21:56.888Z,55.50
2019-05-19T01:23:18.810Z,55.50
2019-05-19T01:24:40.562Z,55.50
2019-05-19T01:26:02.135Z,55.50
2019-05-19T01:27:24.366Z,55.50
2019-05-19T01:28:46.103Z,55.50
2019-05-19T01:30:09.773Z,55.50
2019-05-19T01:31:32.524Z,55.50
2019-05-19T01:32:55.087Z,55.70
2019-05-19T01:34:16.753Z,55.50
2019-05-19T01:35:38.677Z,55.50
2019-05-19T01:36:59.956Z,55.50
2019-05-19T01:38:21.388Z,55.50
2019-05-19T01:39:43.107Z,55.50
2019-05-19T01:41:04.513Z,55.50
2019-05-19T01:42:26.024Z,55.50
2019-05-19T01:43:47.538Z,55.50
2019-05-19T01:45:09.719Z,55.50
2019-05-19T01:46:31.172Z,55.60
2019-05-19T01:47:53.201Z,55.60
2019-05-19T01:49:14.988Z,55.60
2019-05-19T01:50:36.526Z,55.60
2019-05-19T01:51:59.012Z,55.70
2019-05-19T01:53:20.981Z,55.50
2019-05-19T01:54:42.490Z,55.50
2019-05-19T01:56:05.189Z,55.60
2019-05-19T01:57:26.638Z,55.60
2019-05-19T01:58:48.459Z,55.60
2019-05-19T02:00:10.082Z,55.70
2019-05-19T02:01:32.949Z,55.60
2019-05-19T02:02:54.425Z,56.80
2019-05-19T02:04:16.036Z,55.70
2019-05-19T02:05:37.418Z,55.60
2019-05-19T02:07:00.207Z,55.60
2019-05-19T02:08:22.749Z,55.60
2019-05-19T02:09:44.619Z,55.60
2019-05-19T02:11:06.357Z,55.60
2019-05-19T02:12:27.764Z,55.70
2019-05-19T02:13:49.586Z,55.70
2019-05-19T02:15:11.606Z,55.70
2019-05-19T02:16:33.529Z,55.60
2019-05-19T02:17:55.121Z,55.70
2019-05-19T02:19:16.959Z,56.90
2019-05-19T02:20:38.469Z,55.80
2019-05-19T02:22:00.082Z,55.60
2019-05-19T02:23:21.475Z,56.80
2019-05-19T02:24:43.426Z,55.60
2019-05-19T02:26:06.661Z,55.70
2019-05-19T02:27:28.484Z,55.60
2019-05-19T02:28:50.095Z,55.70
2019-05-19T02:30:11.375Z,55.70
2019-05-19T02:31:33.121Z,55.70
2019-05-19T02:32:55.457Z,55.70
2019-05-19T02:34:17.243Z,55.80
2019-05-19T02:35:38.983Z,57.00
2019-05-19T02:37:00.392Z,55.70
2019-05-19T02:38:23.061Z,55.70
2019-05-19T02:39:44.616Z,55.80
2019-05-19T02:41:06.459Z,55.70
2019-05-19T02:42:28.277Z,56.80
2019-05-19T02:43:50.684Z,55.70
2019-05-19T02:45:13.248Z,55.80
2019-05-19T02:46:36.905Z,55.60
2019-05-19T02:47:58.212Z,55.70
2019-05-19T02:49:20.133Z,55.80
2019-05-19T02:50:51.437Z,55.60
2019-05-19T02:52:05.010Z,55.80
2019-05-19T02:53:26.718Z,55.70
2019-05-19T02:54:48.736Z,55.80
2019-05-19T02:56:10.657Z,55.50
2019-05-19T02:57:32.357Z,55.50
2019-05-19T02:58:53.987Z,55.60
2019-05-19T03:00:16.318Z,55.80
2019-05-19T03:01:37.725Z,55.70
2019-05-19T03:02:59.134Z,56.90
2019-05-19T03:04:20.543Z,55.80
2019-05-19T03:05:42.360Z,55.70
2019-05-19T03:07:05.204Z,55.70
2019-05-19T03:08:26.689Z,55.80
2019-05-19T03:09:48.331Z,55.60
2019-05-19T03:11:09.839Z,55.60
2019-05-19T03:12:31.554Z,55.60
2019-05-19T03:13:52.963Z,55.70
2019-05-19T03:15:14.658Z,56.90
2019-05-19T03:16:36.292Z,55.80
2019-05-19T03:17:57.881Z,55.60
2019-05-19T03:19:20.401Z,55.80
2019-05-19T03:20:41.847Z,55.70
2019-05-19T03:22:03.363Z,55.70
2019-05-19T03:23:24.978Z,55.70
2019-05-19T03:24:46.483Z,56.40
2019-05-19T03:26:08.301Z,56.10
2019-05-19T03:27:29.609Z,55.70
2019-05-19T03:28:51.120Z,55.80
2019-05-19T03:30:13.738Z,55.70
2019-05-19T03:31:35.065Z,55.70
2019-05-19T03:32:56.784Z,56.90
2019-05-19T03:34:18.188Z,55.70
2019-05-19T03:35:40.007Z,55.80
2019-05-19T03:37:01.619Z,55.60
2019-05-19T03:38:24.600Z,55.80
2019-05-19T03:39:45.972Z,55.80
2019-05-19T03:41:07.589Z,55.60
2019-05-19T03:42:29.403Z,55.70
2019-05-19T03:43:50.914Z,55.80
2019-05-19T03:45:12.732Z,55.80
2019-05-19T03:46:34.244Z,55.60
2019-05-19T03:47:56.268Z,55.70
2019-05-19T03:49:18.391Z,55.60
2019-05-19T03:50:40.011Z,56.90
2019-05-19T03:52:03.473Z,55.80
2019-05-19T03:53:26.544Z,55.60
2019-05-19T03:54:48.020Z,55.80
2019-05-19T03:56:09.736Z,55.60
2019-05-19T03:57:31.541Z,55.70
2019-05-19T03:58:53.274Z,55.70
2019-05-19T04:00:14.885Z,55.60
2019-05-19T04:01:36.598Z,55.70
2019-05-19T04:02:57.802Z,55.70
2019-05-19T04:04:20.032Z,55.60
2019-05-19T04:05:41.642Z,55.70
2019-05-19T04:07:03.463Z,55.80
2019-05-19T04:08:25.075Z,55.60
2019-05-19T04:09:46.586Z,55.70
2019-05-19T04:11:08.100Z,55.80
2019-05-19T04:12:29.507Z,55.70
2019-05-19T04:13:50.913Z,55.70
2019-05-19T04:15:12.321Z,55.70
2019-05-19T04:16:33.937Z,55.70
2019-05-19T04:17:56.422Z,55.60
2019-05-19T04:19:18.084Z,55.70
2019-05-19T04:20:39.595Z,55.70
2019-05-19T04:22:01.312Z,55.70
2019-05-19T04:23:23.028Z,55.70
2019-05-19T04:24:45.699Z,55.90
2019-05-19T04:26:07.346Z,55.60
2019-05-19T04:27:29.480Z,56.90
2019-05-19T04:28:51.222Z,55.70
2019-05-19T04:30:14.474Z,55.50
2019-05-19T04:31:35.886Z,55.50
2019-05-19T04:32:57.905Z,55.60
2019-05-19T04:34:19.521Z,55.50
2019-05-19T04:35:41.030Z,55.50
2019-05-19T04:37:02.551Z,55.50
2019-05-19T04:38:24.255Z,55.60
2019-05-19T04:39:47.041Z,55.50
2019-05-19T04:41:08.609Z,55.60
2019-05-19T04:42:31.079Z,55.50
2019-05-19T04:43:52.858Z,55.50
2019-05-19T04:45:14.577Z,55.50
2019-05-19T04:46:36.496Z,55.50
2019-05-19T04:47:57.802Z,55.50
2019-05-19T04:49:19.228Z,55.40
2019-05-19T04:50:41.132Z,55.30
2019-05-19T04:52:06.542Z,55.30
2019-05-19T04:53:27.115Z,55.30
2019-05-19T04:54:48.617Z,55.20
2019-05-19T04:56:10.431Z,55.10
2019-05-19T04:57:32.167Z,55.10
2019-05-19T04:58:53.887Z,54.90
2019-05-19T05:00:15.706Z,54.90
2019-05-19T05:01:37.493Z,54.90
2019-05-19T05:02:59.135Z,54.80
2019-05-19T05:04:20.751Z,54.70
2019-05-19T05:05:43.518Z,54.50
2019-05-19T05:07:05.305Z,54.50
2019-05-19T05:08:30.163Z,54.40
2019-05-19T05:09:49.864Z,54.40
2019-05-19T05:11:11.374Z,54.50
2019-05-19T05:12:33.373Z,53.10
2019-05-19T05:13:55.932Z,54.20
2019-05-19T05:15:17.450Z,54.10
2019-05-19T05:16:38.952Z,54.10
2019-05-19T05:18:00.644Z,53.90
2019-05-19T05:19:22.364Z,53.70
2019-05-19T05:20:43.896Z,53.70
2019-05-19T05:22:19.824Z,53.70
2019-05-19T05:23:28.659Z,53.60
2019-05-19T05:24:50.169Z,53.40
2019-05-19T05:26:11.579Z,53.40
2019-05-19T05:27:33.089Z,53.50
2019-05-19T05:28:54.702Z,53.30
2019-05-19T05:30:16.321Z,53.70
2019-05-19T05:31:37.726Z,53.10
2019-05-19T05:32:59.314Z,53.10
2019-05-19T05:34:20.850Z,53.10
2019-05-19T05:35:42.975Z,53.00
2019-05-19T05:37:04.485Z,52.80
2019-05-19T05:38:26.099Z,52.60
2019-05-19T05:39:48.019Z,52.50
2019-05-19T05:41:10.248Z,52.40
2019-05-19T05:42:32.083Z,52.40
2019-05-19T05:43:53.761Z,53.00
2019-05-19T05:45:15.294Z,52.00
2019-05-19T05:46:37.092Z,53.30
2019-05-19T05:47:58.929Z,52.00
2019-05-19T05:49:20.543Z,52.00
2019-05-19T05:50:41.753Z,52.10
2019-05-19T05:52:03.539Z,52.10
2019-05-19T05:53:25.255Z,52.10
2019-05-19T05:54:46.689Z,52.10
2019-05-19T05:56:07.995Z,52.20
2019-05-19T05:57:29.614Z,52.30
2019-05-19T05:58:50.924Z,52.20
2019-05-19T06:00:15.749Z,52.10
2019-05-19T06:01:35.679Z,51.80
2019-05-19T06:02:57.110Z,51.70
2019-05-19T06:04:18.468Z,51.60
2019-05-19T06:05:41.413Z,51.60
2019-05-19T06:07:04.107Z,51.50
2019-05-19T06:08:25.591Z,51.60
2019-05-19T06:09:47.100Z,51.40
2019-05-19T06:11:09.001Z,51.30
2019-05-19T06:12:30.842Z,51.20
2019-05-19T06:13:52.763Z,51.10
2019-05-19T06:15:14.048Z,51.00
2019-05-19T06:16:35.782Z,51.10
2019-05-19T06:17:57.497Z,50.90
2019-05-19T06:19:20.339Z,51.00
2019-05-19T06:20:41.748Z,50.90
2019-05-19T06:22:03.366Z,50.80
2019-05-19T06:23:25.180Z,50.80
2019-05-19T06:24:47.002Z,50.60
2019-05-19T06:26:08.818Z,50.80
2019-05-19T06:27:30.329Z,50.50
2019-05-19T06:28:53.954Z,50.40
2019-05-19T06:30:15.995Z,50.40
2019-05-19T06:31:37.318Z,50.20
2019-05-19T06:32:59.037Z,50.20
2019-05-19T06:34:20.853Z,50.20
2019-05-19T06:35:42.366Z,50.10
2019-05-19T06:37:03.977Z,50.00
2019-05-19T06:38:25.389Z,50.00
2019-05-19T06:39:46.999Z,50.00
2019-05-19T06:41:08.516Z,49.80
2019-05-19T06:42:30.023Z,49.70
2019-05-19T06:43:51.534Z,49.60
2019-05-19T06:45:14.376Z,49.60
2019-05-19T06:46:35.965Z,49.80
2019-05-19T06:47:57.397Z,49.60
2019-05-19T06:49:19.011Z,49.70
2019-05-19T06:50:40.938Z,49.50
2019-05-19T06:52:02.724Z,49.40
2019-05-19T06:53:25.410Z,50.00
2019-05-19T06:54:46.899Z,49.30
2019-05-19T06:56:08.309Z,49.30
2019-05-19T06:57:30.126Z,49.30
2019-05-19T06:58:51.642Z,49.30
2019-05-19T07:00:13.764Z,49.10
2019-05-19T07:01:35.248Z,48.90
2019-05-19T07:02:56.784Z,49.00
2019-05-19T07:04:18.579Z,48.50
2019-05-19T07:05:40.423Z,48.90
2019-05-19T07:07:02.267Z,48.90
2019-05-19T07:08:25.162Z,49.00
2019-05-19T07:09:57.805Z,48.60
2019-05-19T07:11:09.640Z,48.60
2019-05-19T07:12:31.048Z,48.50
2019-05-19T07:13:52.870Z,48.50
2019-05-19T07:15:15.402Z,48.60
2019-05-19T07:16:36.812Z,48.60
2019-05-19T07:17:58.425Z,48.50
2019-05-19T07:19:19.935Z,48.80
2019-05-19T07:20:41.753Z,48.60
2019-05-19T07:22:04.699Z,48.70
2019-05-19T07:23:28.659Z,48.70
2019-05-19T07:24:49.257Z,48.70
2019-05-19T07:26:12.039Z,48.70
2019-05-19T07:27:33.628Z,48.80
2019-05-19T07:28:55.429Z,48.80
2019-05-19T07:30:17.025Z,48.90
2019-05-19T07:31:38.627Z,48.90
2019-05-19T07:33:00.371Z,48.90
2019-05-19T07:34:21.961Z,48.90
2019-05-19T07:35:43.803Z,49.10
2019-05-19T07:37:05.596Z,49.10
2019-05-19T07:38:27.236Z,49.00
2019-05-19T07:39:48.930Z,49.10
2019-05-19T07:41:10.256Z,49.30
2019-05-19T07:42:32.083Z,49.30
2019-05-19T07:43:53.689Z,49.50
2019-05-19T07:45:15.076Z,49.30
2019-05-19T07:46:36.408Z,49.30
2019-05-19T07:47:58.021Z,49.30
2019-05-19T07:49:19.631Z,50.50
2019-05-19T07:50:41.142Z,49.30
2019-05-19T07:52:02.449Z,49.30
2019-05-19T07:53:25.838Z,49.20
2019-05-19T07:54:47.595Z,49.30
2019-05-19T07:56:09.132Z,49.20
2019-05-19T07:57:30.642Z,49.00
2019-05-19T07:58:52.358Z,49.10
2019-05-19T08:00:14.402Z,48.90
2019-05-19T08:01:35.996Z,48.90
2019-05-19T08:02:57.789Z,48.90
2019-05-19T08:04:19.120Z,48.70
2019-05-19T08:05:40.528Z,48.60
2019-05-19T08:07:03.115Z,48.60
2019-05-19T08:08:24.785Z,48.60
2019-05-19T08:09:46.574Z,48.70
2019-05-19T08:11:08.006Z,48.70
2019-05-19T08:12:29.824Z,48.70
2019-05-19T08:13:51.745Z,49.20
2019-05-19T08:15:13.247Z,48.80
2019-05-19T08:16:34.870Z,48.90
2019-05-19T08:17:57.699Z,49.10
2019-05-19T08:19:19.120Z,49.30
2019-05-19T08:20:40.836Z,49.30
2019-05-19T08:22:02.245Z,49.50
2019-05-19T08:23:23.757Z,49.60
2019-05-19T08:24:45.473Z,49.60
2019-05-19T08:26:06.855Z,49.90
2019-05-19T08:27:28.393Z,49.70
2019-05-19T08:28:49.980Z,49.80
2019-05-19T08:30:11.707Z,50.00
2019-05-19T08:31:33.440Z,50.10
2019-05-19T08:32:54.923Z,50.10
2019-05-19T08:34:16.564Z,50.10
2019-05-19T08:35:38.482Z,50.20
2019-05-19T08:36:59.993Z,50.30
2019-05-19T08:38:21.608Z,50.20
2019-05-19T08:39:42.913Z,50.20
2019-05-19T08:41:04.335Z,50.50
2019-05-19T08:42:25.914Z,50.40
2019-05-19T08:43:47.652Z,50.40
2019-05-19T08:45:09.469Z,50.50
2019-05-19T08:46:30.776Z,50.70
2019-05-19T08:47:52.392Z,50.60
2019-05-19T08:49:14.079Z,50.80
2019-05-19T08:50:35.615Z,50.70
2019-05-19T08:51:57.230Z,50.70
2019-05-19T08:53:18.535Z,50.80
2019-05-19T08:54:40.149Z,51.00
2019-05-19T08:56:01.765Z,51.00
2019-05-19T08:57:23.250Z,51.10
2019-05-19T08:58:44.786Z,51.10
2019-05-19T09:00:06.582Z,51.10
2019-05-19T09:01:28.394Z,51.10
2019-05-19T09:02:50.035Z,51.20
2019-05-19T09:04:11.546Z,51.20
2019-05-19T09:05:33.056Z,51.30
2019-05-19T09:06:54.979Z,51.40
2019-05-19T09:08:16.693Z,51.40
2019-05-19T09:09:38.411Z,51.40
2019-05-19T09:11:00.433Z,51.50
2019-05-19T09:12:22.147Z,51.50
2019-05-19T09:13:43.661Z,51.50
2019-05-19T09:15:05.683Z,51.70
2019-05-19T09:16:28.681Z,51.70
2019-05-19T09:17:50.217Z,51.80
2019-05-19T09:19:11.624Z,51.70
2019-05-19T09:20:33.366Z,51.70
2019-05-19T09:21:54.777Z,51.70
2019-05-19T09:23:16.063Z,51.80
2019-05-19T09:24:37.694Z,51.80
2019-05-19T09:25:59.409Z,52.00
2019-05-19T09:27:20.819Z,52.00
2019-05-19T09:28:42.513Z,52.00
2019-05-19T09:30:06.377Z,52.20
2019-05-19T09:31:27.706Z,52.30
2019-05-19T09:32:49.324Z,52.20
2019-05-19T09:34:11.240Z,53.40
2019-05-19T09:35:33.060Z,52.20
2019-05-19T09:36:54.878Z,52.30
2019-05-19T09:38:16.700Z,52.20
2019-05-19T09:39:38.080Z,52.30
2019-05-19T09:40:59.512Z,52.20
2019-05-19T09:42:21.433Z,52.50
2019-05-19T09:43:42.944Z,52.50
2019-05-19T09:45:07.914Z,52.50
2019-05-19T09:46:29.664Z,52.50
2019-05-19T09:47:51.294Z,52.50
2019-05-19T09:49:12.880Z,52.60
2019-05-19T09:50:34.595Z,52.60
2019-05-19T09:51:57.122Z,52.50
2019-05-19T09:53:18.544Z,52.50
2019-05-19T09:54:45.461Z,52.60
2019-05-19T09:56:03.379Z,52.50
2019-05-19T09:57:25.096Z,52.40
2019-05-19T09:58:46.836Z,52.50
2019-05-19T10:00:09.491Z,52.60
2019-05-19T10:01:31.164Z,52.40
2019-05-19T10:02:52.905Z,52.60
2019-05-19T10:04:14.315Z,52.40
2019-05-19T10:05:36.005Z,52.40
2019-05-19T10:06:57.746Z,52.40
2019-05-19T10:08:19.498Z,52.40
2019-05-19T10:10:01.382Z,52.40
2019-05-19T10:11:48.465Z,52.40
2019-05-19T10:13:10.076Z,52.40
2019-05-19T10:14:31.791Z,52.50
2019-05-19T10:15:53.302Z,52.40
2019-05-19T10:17:16.451Z,52.40
2019-05-19T10:18:37.968Z,52.40
2019-05-19T10:20:00.087Z,52.40
2019-05-19T10:21:22.008Z,52.40
2019-05-19T10:22:43.521Z,52.30
2019-05-19T10:24:05.108Z,52.40
2019-05-19T10:25:26.644Z,52.40
2019-05-19T10:26:48.259Z,52.40
2019-05-19T10:28:10.280Z,52.30
2019-05-19T10:29:31.664Z,52.30
2019-05-19T10:30:53.712Z,52.40
2019-05-19T10:32:15.022Z,52.40
2019-05-19T10:33:36.709Z,52.40
2019-05-19T10:34:58.962Z,52.40
2019-05-19T10:36:20.576Z,52.50
2019-05-19T10:37:43.026Z,52.40
2019-05-19T10:39:06.057Z,52.40
2019-05-19T10:40:27.566Z,52.40
2019-05-19T10:41:50.685Z,51.50
2019-05-19T10:43:12.123Z,52.30
2019-05-19T10:44:34.100Z,52.40
2019-05-19T10:45:55.740Z,52.40
2019-05-19T10:47:17.271Z,52.40
2019-05-19T10:48:38.888Z,52.00
2019-05-19T10:50:00.499Z,52.40
2019-05-19T10:51:22.112Z,52.40
2019-05-19T10:52:44.520Z,52.50
2019-05-19T10:54:05.954Z,52.40
2019-05-19T10:55:36.070Z,52.50
2019-05-19T10:56:50.716Z,52.40
2019-05-19T10:58:12.461Z,52.40
2019-05-19T10:59:33.738Z,52.50
2019-05-19T11:00:56.172Z,52.50
2019-05-19T11:02:17.580Z,52.50
2019-05-19T11:03:39.193Z,52.40
2019-05-19T11:05:00.909Z,52.60
2019-05-19T11:06:23.446Z,52.50
2019-05-19T11:07:45.265Z,52.70
2019-05-19T11:09:07.491Z,52.70
2019-05-19T11:10:28.877Z,52.70
2019-05-19T11:11:50.512Z,52.80
2019-05-19T11:13:12.331Z,52.70
2019-05-19T11:14:33.843Z,52.90
2019-05-19T11:15:55.559Z,52.90
2019-05-19T11:17:17.763Z,52.80
2019-05-19T11:18:39.684Z,52.80
2019-05-19T11:20:01.096Z,53.20
2019-05-19T11:21:22.625Z,52.80
2019-05-19T11:22:44.239Z,52.80
2019-05-19T11:24:05.956Z,52.90
2019-05-19T11:25:33.994Z,52.80
2019-05-19T11:26:51.332Z,52.90
2019-05-19T11:28:13.058Z,52.80
2019-05-19T11:29:34.560Z,52.90
2019-05-19T11:30:56.295Z,52.90
2019-05-19T11:32:18.607Z,53.00
2019-05-19T11:33:40.220Z,52.80
2019-05-19T11:35:01.768Z,53.00
2019-05-19T11:36:25.105Z,53.10
2019-05-19T11:37:46.800Z,53.00
2019-05-19T11:39:08.620Z,53.10
2019-05-19T11:40:30.437Z,53.00
2019-05-19T11:41:52.254Z,52.90
2019-05-19T11:43:13.664Z,53.10
2019-05-19T11:44:35.175Z,53.20
2019-05-19T11:45:56.891Z,53.00
2019-05-19T11:47:18.914Z,53.10
2019-05-19T11:48:40.424Z,53.10
2019-05-19T11:50:01.847Z,53.10
2019-05-19T11:51:23.346Z,53.10
2019-05-19T11:52:44.650Z,53.20
2019-05-19T11:54:06.572Z,53.20
2019-05-19T11:55:28.468Z,53.20
2019-05-19T11:56:51.750Z,53.30
2019-05-19T11:58:13.563Z,53.30
2019-05-19T11:59:35.361Z,53.20
2019-05-19T12:00:57.180Z,53.30
2019-05-19T12:02:20.531Z,53.30
2019-05-19T12:03:42.166Z,53.40
2019-05-19T12:05:04.700Z,53.30
2019-05-19T12:06:38.531Z,53.40
2019-05-19T12:07:49.259Z,53.40
2019-05-19T12:09:10.974Z,53.30
2019-05-19T12:10:32.902Z,53.40
2019-05-19T12:11:55.227Z,53.40
2019-05-19T12:13:16.737Z,53.40
2019-05-19T12:14:38.452Z,53.40
2019-05-19T12:16:00.067Z,53.40
2019-05-19T12:17:21.448Z,53.40
2019-05-19T12:18:43.089Z,54.70
2019-05-19T12:20:05.008Z,53.30
2019-05-19T12:21:26.621Z,53.40
2019-05-19T12:22:47.910Z,53.30
2019-05-19T12:24:09.754Z,53.50
2019-05-19T12:25:31.463Z,53.40
2019-05-19T12:26:53.389Z,53.50
2019-05-19T12:28:15.100Z,53.50
2019-05-19T12:29:36.918Z,53.40
2019-05-19T12:30:58.530Z,53.40
2019-05-19T12:32:20.266Z,53.40
2019-05-19T12:33:51.445Z,53.40
2019-05-19T12:35:06.525Z,53.40
2019-05-19T12:36:28.261Z,53.40
2019-05-19T12:37:49.883Z,53.40
2019-05-19T12:39:11.469Z,53.50
2019-05-19T12:40:33.863Z,53.60
2019-05-19T12:41:55.332Z,53.40
2019-05-19T12:43:17.147Z,53.40
2019-05-19T12:44:38.760Z,53.50
2019-05-19T12:46:00.798Z,53.50
2019-05-19T12:47:22.705Z,53.50
2019-05-19T12:48:43.907Z,53.40
2019-05-19T12:50:05.942Z,53.50
2019-05-19T12:51:27.623Z,53.70
2019-05-19T12:52:49.363Z,53.50
2019-05-19T12:54:12.962Z,53.70
2019-05-19T12:55:34.433Z,53.60
2019-05-19T12:56:55.919Z,52.40
2019-05-19T12:58:17.455Z,53.50
2019-05-19T12:59:38.863Z,53.60
2019-05-19T13:01:00.579Z,53.60
2019-05-19T13:02:22.000Z,53.50
2019-05-19T13:03:43.498Z,53.50
2019-05-19T13:05:06.260Z,53.70
2019-05-19T13:06:29.168Z,53.60
2019-05-19T13:07:50.615Z,53.70
2019-05-19T13:09:12.717Z,53.70
2019-05-19T13:10:34.127Z,53.60
2019-05-19T13:11:56.021Z,53.60
2019-05-19T13:13:18.838Z,53.70
2019-05-19T13:14:40.195Z,53.70
2019-05-19T13:16:01.706Z,53.70
2019-05-19T13:17:23.013Z,53.70
2019-05-19T13:18:44.524Z,53.90
2019-05-19T13:20:07.217Z,53.90
2019-05-19T13:21:28.776Z,53.70
2019-05-19T13:22:50.701Z,53.80
2019-05-19T13:24:12.206Z,53.80
2019-05-19T13:25:33.616Z,53.90
2019-05-19T13:26:56.893Z,53.90
2019-05-19T13:28:18.377Z,53.90
2019-05-19T13:29:39.889Z,54.00
2019-05-19T13:31:01.376Z,53.90
2019-05-19T13:32:22.794Z,54.00
2019-05-19T13:33:44.322Z,54.00
2019-05-19T13:35:06.242Z,54.00
2019-05-19T13:36:28.599Z,54.10
2019-05-19T13:37:50.490Z,54.00
2019-05-19T13:39:12.009Z,54.10
2019-05-19T13:40:33.521Z,54.10
2019-05-19T13:41:55.229Z,54.00
2019-05-19T13:43:17.824Z,54.20
2019-05-19T13:44:39.172Z,54.20
2019-05-19T13:46:00.786Z,54.20
2019-05-19T13:47:23.682Z,54.20
2019-05-19T13:48:45.344Z,54.20
2019-05-19T13:50:07.572Z,54.30
2019-05-19T13:51:28.878Z,54.30
2019-05-19T13:52:51.339Z,54.30
2019-05-19T13:54:13.232Z,54.40
2019-05-19T13:55:34.716Z,54.50
2019-05-19T13:57:11.070Z,54.40
2019-05-19T13:58:19.198Z,54.40
2019-05-19T13:59:41.020Z,54.30
2019-05-19T14:01:02.629Z,54.40
2019-05-19T14:02:24.140Z,54.40
2019-05-19T14:03:45.963Z,54.60
2019-05-19T14:05:07.344Z,54.40
2019-05-19T14:06:29.186Z,54.40
2019-05-19T14:07:50.672Z,54.50
2019-05-19T14:09:15.191Z,54.60
2019-05-19T14:10:35.770Z,54.40
2019-05-19T14:11:57.053Z,54.50
2019-05-19T14:13:18.789Z,54.40
2019-05-19T14:14:40.709Z,54.50
2019-05-19T14:16:02.223Z,54.60
2019-05-19T14:17:24.818Z,54.50
2019-05-19T14:18:46.267Z,54.60
2019-05-19T14:20:07.572Z,54.60
2019-05-19T14:21:29.197Z,54.50
2019-05-19T14:22:50.600Z,54.50
2019-05-19T14:24:12.007Z,54.60
2019-05-19T14:25:33.821Z,54.60
2019-05-19T14:26:55.230Z,54.50
2019-05-19T14:28:16.921Z,54.70
2019-05-19T14:29:38.356Z,54.60
2019-05-19T14:31:01.866Z,53.60
2019-05-19T14:32:23.527Z,54.50
2019-05-19T14:33:49.032Z,54.70
2019-05-19T14:35:10.748Z,54.70
2019-05-19T14:36:32.467Z,54.60
2019-05-19T14:37:54.186Z,54.70
2019-05-19T14:39:15.690Z,54.60
2019-05-19T14:40:37.510Z,54.80
2019-05-19T14:41:59.123Z,54.50
2019-05-19T14:43:20.722Z,54.70
2019-05-19T14:44:42.456Z,54.60
2019-05-19T14:46:05.733Z,54.70
2019-05-19T14:47:27.255Z,54.80
2019-05-19T14:48:49.032Z,54.80
2019-05-19T14:50:11.240Z,54.70
2019-05-19T14:51:33.155Z,56.20
2019-05-19T14:52:54.691Z,54.60
2019-05-19T14:54:16.511Z,54.80
2019-05-19T14:55:38.198Z,54.70
2019-05-19T14:57:00.147Z,54.70
2019-05-19T14:58:21.454Z,54.70
2019-05-19T14:59:43.170Z,54.70
2019-05-19T15:01:04.476Z,54.80
2019-05-19T15:02:26.087Z,54.80
2019-05-19T15:03:47.600Z,54.80
2019-05-19T15:05:09.315Z,54.80
2019-05-19T15:06:30.826Z,54.80
2019-05-19T15:07:52.747Z,54.80
2019-05-19T15:09:14.259Z,54.80
2019-05-19T15:10:35.850Z,54.80
2019-05-19T15:11:57.382Z,54.90
2019-05-19T15:13:18.995Z,54.90
2019-05-19T15:14:41.124Z,54.90
2019-05-19T15:16:02.529Z,54.80
2019-05-19T15:17:24.056Z,55.00
2019-05-19T15:18:46.067Z,55.00
2019-05-19T15:20:07.575Z,54.90
2019-05-19T15:21:31.765Z,55.00
2019-05-19T15:22:52.442Z,54.90
2019-05-19T15:24:14.259Z,55.00
2019-05-19T15:25:35.874Z,54.90
2019-05-19T15:26:57.178Z,54.90
2019-05-19T15:28:18.791Z,55.00
2019-05-19T15:29:41.430Z,55.10
2019-05-19T15:31:03.146Z,55.00
2019-05-19T15:32:24.758Z,55.00
2019-05-19T15:33:46.576Z,55.10
2019-05-19T15:35:07.985Z,54.90
2019-05-19T15:36:29.878Z,55.00
2019-05-19T15:37:51.621Z,55.00
2019-05-19T15:39:14.592Z,55.10
2019-05-19T15:40:36.385Z,55.10
2019-05-19T15:41:58.076Z,55.00
2019-05-19T15:43:19.818Z,55.00
2019-05-19T15:44:41.534Z,55.10
2019-05-19T15:46:02.941Z,55.00
2019-05-19T15:47:25.168Z,55.00
2019-05-19T15:48:46.586Z,55.10
2019-05-19T15:50:09.894Z,54.90
2019-05-19T15:51:37.145Z,55.00
2019-05-19T15:52:54.490Z,55.00
2019-05-19T15:54:16.000Z,55.10
2019-05-19T15:55:37.514Z,55.10
2019-05-19T15:56:59.039Z,55.10
2019-05-19T15:58:20.638Z,55.10
2019-05-19T15:59:42.126Z,55.10
2019-05-19T16:01:03.873Z,55.30
2019-05-19T16:02:25.685Z,55.10
2019-05-19T16:03:47.603Z,55.20
2019-05-19T16:05:09.319Z,55.10
2019-05-19T16:06:30.931Z,55.10
2019-05-19T16:07:52.647Z,55.10
2019-05-19T16:09:14.344Z,55.10
2019-05-19T16:10:35.951Z,55.10
2019-05-19T16:11:58.003Z,55.10
2019-05-19T16:13:21.969Z,55.00
2019-05-19T16:14:43.172Z,55.10
2019-05-19T16:16:05.812Z,55.00
2019-05-19T16:17:27.729Z,54.90
2019-05-19T16:18:52.975Z,55.00
2019-05-19T16:20:12.673Z,54.90
2019-05-19T16:21:34.081Z,54.90
2019-05-19T16:22:55.720Z,55.10
2019-05-19T16:24:17.310Z,55.00
2019-05-19T16:25:38.821Z,55.00
2019-05-19T16:27:00.745Z,55.00
2019-05-19T16:28:30.259Z,55.00
2019-05-19T16:29:45.603Z,55.10
2019-05-19T16:31:07.141Z,55.10
2019-05-19T16:32:28.754Z,55.00
2019-05-19T16:33:50.240Z,55.00
2019-05-19T16:35:12.187Z,55.10
2019-05-19T16:36:33.699Z,55.10
2019-05-19T16:37:55.620Z,55.50
2019-05-19T16:39:17.027Z,55.80
2019-05-19T16:40:38.845Z,55.90
2019-05-19T16:42:00.159Z,56.00
2019-05-19T16:43:22.695Z,56.10
2019-05-19T16:44:44.197Z,55.90
2019-05-19T16:46:05.686Z,55.80
2019-05-19T16:47:27.118Z,55.80
2019-05-19T16:48:48.422Z,55.80
2019-05-19T16:50:10.964Z,55.80
2019-05-19T16:51:32.368Z,55.70
2019-05-19T16:52:53.774Z,55.70
2019-05-19T16:54:15.287Z,55.70
2019-05-19T16:55:36.795Z,55.70
2019-05-19T16:56:58.207Z,55.60
2019-05-19T16:58:21.501Z,55.60
2019-05-19T16:59:42.762Z,55.60
2019-05-19T17:01:04.685Z,55.60
2019-05-19T17:02:26.298Z,55.60
2019-05-19T17:03:48.118Z,55.60
2019-05-19T17:05:09.727Z,55.70
2019-05-19T17:06:31.008Z,55.70
2019-05-19T17:07:52.858Z,55.70
2019-05-19T17:09:14.670Z,55.60
2019-05-19T17:10:35.981Z,55.60
2019-05-19T17:11:57.282Z,55.70
2019-05-19T17:13:19.204Z,55.70
2019-05-19T17:14:40.920Z,55.70
2019-05-19T17:16:02.642Z,55.80
2019-05-19T17:17:25.488Z,55.80
2019-05-19T17:18:48.128Z,55.90
2019-05-19T17:20:09.731Z,55.80
2019-05-19T17:21:31.547Z,55.80
2019-05-19T17:22:52.962Z,55.80
2019-05-19T17:24:14.438Z,55.20
2019-05-19T17:25:35.854Z,55.80
2019-05-19T17:26:57.386Z,55.90
2019-05-19T17:28:18.903Z,55.80
2019-05-19T17:29:40.182Z,55.80
2019-05-19T17:31:03.730Z,55.80
2019-05-19T17:32:24.841Z,55.70
2019-05-19T17:33:46.453Z,55.70